sensor_id;sensor_type;location;lat;lon;timestamp;P1;durP1;ratioP1;P2;durP2;ratioP2
64678;SDS011;51094;53.864;27.676;2022-08-19T00:01:23;1.98;;;1.98;;
64678;SDS011;51094;53.864;27.676;2022-08-19T00:03:59;1.88;;;1.88;;
64678;SDS011;51094;53.864;27.676;2022-08-19T00:06:27;1.83;;;1.83;;
64678;SDS011;51094;53.864;27.676;2022-08-19T00:08:56;2.20;;;2.20;;
64678;SDS011;51094;53.864;27.676;2022-08-19T00:11:24;2.08;;;2.08;;
64678;SDS011;51094;53.864;27.676;2022-08-19T00:13:52;1.85;;;1.85;;
64678;SDS011;51094;53.864;27.676;2022-08-19T00:16:19;2.05;;;2.05;;
64678;SDS011;51094;53.864;27.676;2022-08-19T00:18:51;2.00;;;2.00;;
64678;SDS011;51094;53.864;27.676;2022-08-19T00:21:19;1.90;;;1.90;;
64678;SDS011;51094;53.864;27.676;2022-08-19T00:23:46;2.45;;;2.35;;
64678;SDS011;51094;53.864;27.676;2022-08-19T00:26:13;1.90;;;1.90;;
64678;SDS011;51094;53.864;27.676;2022-08-19T00:28:40;2.13;;;2.13;;
64678;SDS011;51094;53.864;27.676;2022-08-19T00:31:07;2.10;;;2.00;;
64678;SDS011;51094;53.864;27.676;2022-08-19T00:33:35;1.92;;;1.92;;
64678;SDS011;51094;53.864;27.676;2022-08-19T00:36:03;2.10;;;2.10;;
64678;SDS011;51094;53.864;27.676;2022-08-19T00:38:33;2.10;;;2.10;;
64678;SDS011;51094;53.864;27.676;2022-08-19T00:41:04;2.03;;;2.03;;
64678;SDS011;51094;53.864;27.676;2022-08-19T00:43:31;2.13;;;2.03;;
64678;SDS011;51094;53.864;27.676;2022-08-19T00:45:58;2.10;;;2.10;;
64678;SDS011;51094;53.864;27.676;2022-08-19T00:48:24;1.88;;;1.88;;
64678;SDS011;51094;53.864;27.676;2022-08-19T00:50:51;2.00;;;2.00;;
64678;SDS011;51094;53.864;27.676;2022-08-19T00:53:21;2.10;;;2.10;;
64678;SDS011;51094;53.864;27.676;2022-08-19T00:55:51;1.90;;;1.90;;
64678;SDS011;51094;53.864;27.676;2022-08-19T00:58:22;1.95;;;1.95;;
64678;SDS011;51094;53.864;27.676;2022-08-19T01:00:55;2.15;;;2.15;;
64678;SDS011;51094;53.864;27.676;2022-08-19T01:03:22;2.00;;;2.00;;
64678;SDS011;51094;53.864;27.676;2022-08-19T01:05:49;2.08;;;2.08;;
64678;SDS011;51094;53.864;27.676;2022-08-19T01:08:18;2.10;;;2.10;;
64678;SDS011;51094;53.864;27.676;2022-08-19T01:10:48;2.13;;;2.13;;
64678;SDS011;51094;53.864;27.676;2022-08-19T01:13:19;2.40;;;2.40;;
64678;SDS011;51094;53.864;27.676;2022-08-19T01:15:52;2.00;;;2.00;;
64678;SDS011;51094;53.864;27.676;2022-08-19T01:18:22;2.38;;;2.33;;
64678;SDS011;51094;53.864;27.676;2022-08-19T01:20:49;2.17;;;2.17;;
64678;SDS011;51094;53.864;27.676;2022-08-19T01:23:18;2.00;;;2.00;;
64678;SDS011;51094;53.864;27.676;2022-08-19T01:25:48;2.10;;;2.10;;
64678;SDS011;51094;53.864;27.676;2022-08-19T01:31:06;2.10;;;2.10;;
64678;SDS011;51094;53.864;27.676;2022-08-19T01:33:34;2.03;;;2.03;;
64678;SDS011;51094;53.864;27.676;2022-08-19T01:36:05;2.10;;;2.10;;
64678;SDS011;51094;53.864;27.676;2022-08-19T01:38:36;2.00;;;2.00;;
64678;SDS011;51094;53.864;27.676;2022-08-19T01:41:12;2.10;;;2.10;;
64678;SDS011;51094;53.864;27.676;2022-08-19T01:43:39;1.90;;;1.90;;
64678;SDS011;51094;53.864;27.676;2022-08-19T01:46:26;2.25;;;2.25;;
64678;SDS011;51094;53.864;27.676;2022-08-19T01:48:52;2.50;;;2.40;;
64678;SDS011;51094;53.864;27.676;2022-08-19T01:51:19;2.20;;;2.10;;
64678;SDS011;51094;53.864;27.676;2022-08-19T01:53:49;2.20;;;2.20;;
64678;SDS011;51094;53.864;27.676;2022-08-19T01:56:17;2.05;;;2.05;;
64678;SDS011;51094;53.864;27.676;2022-08-19T01:58:47;2.33;;;2.33;;
64678;SDS011;51094;53.864;27.676;2022-08-19T02:01:17;2.40;;;2.40;;
64678;SDS011;51094;53.864;27.676;2022-08-19T02:03:44;2.47;;;2.47;;
64678;SDS011;51094;53.864;27.676;2022-08-19T02:06:12;2.45;;;2.42;;
64678;SDS011;51094;53.864;27.676;2022-08-19T02:08:40;2.60;;;2.58;;
64678;SDS011;51094;53.864;27.676;2022-08-19T02:11:07;2.40;;;2.40;;
64678;SDS011;51094;53.864;27.676;2022-08-19T02:13:33;2.70;;;2.67;;
64678;SDS011;51094;53.864;27.676;2022-08-19T02:16:00;2.50;;;2.50;;
64678;SDS011;51094;53.864;27.676;2022-08-19T02:18:29;2.87;;;2.80;;
64678;SDS011;51094;53.864;27.676;2022-08-19T02:20:56;2.50;;;2.50;;
64678;SDS011;51094;53.864;27.676;2022-08-19T02:23:22;2.80;;;2.80;;
64678;SDS011;51094;53.864;27.676;2022-08-19T02:25:49;2.55;;;2.55;;
64678;SDS011;51094;53.864;27.676;2022-08-19T02:28:17;2.40;;;2.40;;
64678;SDS011;51094;53.864;27.676;2022-08-19T02:30:45;2.80;;;2.80;;
64678;SDS011;51094;53.864;27.676;2022-08-19T02:33:13;2.45;;;2.45;;
64678;SDS011;51094;53.864;27.676;2022-08-19T02:35:41;2.58;;;2.58;;
64678;SDS011;51094;53.864;27.676;2022-08-19T02:38:12;2.42;;;2.42;;
64678;SDS011;51094;53.864;27.676;2022-08-19T02:40:56;2.70;;;2.70;;
64678;SDS011;51094;53.864;27.676;2022-08-19T02:43:24;3.17;;;3.08;;
64678;SDS011;51094;53.864;27.676;2022-08-19T02:45:52;2.60;;;2.60;;
64678;SDS011;51094;53.864;27.676;2022-08-19T02:48:20;2.90;;;2.80;;
64678;SDS011;51094;53.864;27.676;2022-08-19T02:50:49;2.85;;;2.85;;
64678;SDS011;51094;53.864;27.676;2022-08-19T02:53:22;2.30;;;2.30;;
64678;SDS011;51094;53.864;27.676;2022-08-19T02:55:50;2.47;;;2.47;;
64678;SDS011;51094;53.864;27.676;2022-08-19T02:58:18;2.85;;;2.80;;
64678;SDS011;51094;53.864;27.676;2022-08-19T03:00:50;3.05;;;3.05;;
64678;SDS011;51094;53.864;27.676;2022-08-19T03:03:19;2.50;;;2.50;;
64678;SDS011;51094;53.864;27.676;2022-08-19T03:05:46;2.75;;;2.65;;
64678;SDS011;51094;53.864;27.676;2022-08-19T03:08:22;2.60;;;2.60;;
64678;SDS011;51094;53.864;27.676;2022-08-19T03:10:50;2.90;;;2.80;;
64678;SDS011;51094;53.864;27.676;2022-08-19T03:13:19;2.67;;;2.58;;
64678;SDS011;51094;53.864;27.676;2022-08-19T03:15:46;2.95;;;2.90;;
64678;SDS011;51094;53.864;27.676;2022-08-19T03:18:14;2.67;;;2.60;;
64678;SDS011;51094;53.864;27.676;2022-08-19T03:20:44;2.67;;;2.67;;
64678;SDS011;51094;53.864;27.676;2022-08-19T03:23:13;2.90;;;2.80;;
64678;SDS011;51094;53.864;27.676;2022-08-19T03:25:43;2.70;;;2.70;;
64678;SDS011;51094;53.864;27.676;2022-08-19T03:28:23;2.67;;;2.67;;
64678;SDS011;51094;53.864;27.676;2022-08-19T03:30:57;2.78;;;2.78;;
64678;SDS011;51094;53.864;27.676;2022-08-19T03:33:29;2.53;;;2.53;;
64678;SDS011;51094;53.864;27.676;2022-08-19T03:36:11;2.45;;;2.45;;
64678;SDS011;51094;53.864;27.676;2022-08-19T03:38:43;2.72;;;2.63;;
64678;SDS011;51094;53.864;27.676;2022-08-19T03:41:23;2.60;;;2.60;;
64678;SDS011;51094;53.864;27.676;2022-08-19T03:44:10;2.83;;;2.80;;
64678;SDS011;51094;53.864;27.676;2022-08-19T03:46:44;2.63;;;2.60;;
64678;SDS011;51094;53.864;27.676;2022-08-19T03:49:15;2.67;;;2.67;;
64678;SDS011;51094;53.864;27.676;2022-08-19T03:51:44;3.20;;;3.10;;
64678;SDS011;51094;53.864;27.676;2022-08-19T03:54:12;2.92;;;2.92;;
64678;SDS011;51094;53.864;27.676;2022-08-19T03:56:42;2.72;;;2.72;;
64678;SDS011;51094;53.864;27.676;2022-08-19T03:59:12;2.80;;;2.80;;
64678;SDS011;51094;53.864;27.676;2022-08-19T04:01:41;2.80;;;2.70;;
64678;SDS011;51094;53.864;27.676;2022-08-19T04:04:09;2.80;;;2.80;;
64678;SDS011;51094;53.864;27.676;2022-08-19T04:06:36;3.05;;;2.95;;
64678;SDS011;51094;53.864;27.676;2022-08-19T04:09:06;3.10;;;3.00;;
64678;SDS011;51094;53.864;27.676;2022-08-19T04:11:40;2.88;;;2.78;;
64678;SDS011;51094;53.864;27.676;2022-08-19T04:14:15;3.10;;;3.00;;
64678;SDS011;51094;53.864;27.676;2022-08-19T04:16:44;2.83;;;2.83;;
64678;SDS011;51094;53.864;27.676;2022-08-19T04:19:13;3.03;;;2.92;;
64678;SDS011;51094;53.864;27.676;2022-08-19T04:21:42;3.13;;;3.03;;
64678;SDS011;51094;53.864;27.676;2022-08-19T04:24:11;2.88;;;2.78;;
64678;SDS011;51094;53.864;27.676;2022-08-19T04:26:39;3.08;;;2.97;;
64678;SDS011;51094;53.864;27.676;2022-08-19T04:29:08;2.97;;;2.88;;
64678;SDS011;51094;53.864;27.676;2022-08-19T04:31:39;2.88;;;2.80;;
64678;SDS011;51094;53.864;27.676;2022-08-19T04:34:08;3.03;;;3.00;;
64678;SDS011;51094;53.864;27.676;2022-08-19T04:36:39;2.78;;;2.78;;
64678;SDS011;51094;53.864;27.676;2022-08-19T04:39:09;3.10;;;3.00;;
64678;SDS011;51094;53.864;27.676;2022-08-19T04:41:43;3.00;;;2.90;;
64678;SDS011;51094;53.864;27.676;2022-08-19T04:44:30;3.20;;;3.10;;
64678;SDS011;51094;53.864;27.676;2022-08-19T04:47:00;2.90;;;2.90;;
64678;SDS011;51094;53.864;27.676;2022-08-19T04:49:37;2.97;;;2.92;;
64678;SDS011;51094;53.864;27.676;2022-08-19T04:52:04;3.05;;;3.05;;
64678;SDS011;51094;53.864;27.676;2022-08-19T04:54:30;2.90;;;2.90;;
64678;SDS011;51094;53.864;27.676;2022-08-19T04:57:04;2.97;;;2.88;;
64678;SDS011;51094;53.864;27.676;2022-08-19T04:59:33;3.20;;;3.10;;
64678;SDS011;51094;53.864;27.676;2022-08-19T05:02:00;2.70;;;2.70;;
64678;SDS011;51094;53.864;27.676;2022-08-19T05:04:26;3.30;;;3.20;;
64678;SDS011;51094;53.864;27.676;2022-08-19T05:06:58;3.10;;;3.00;;
64678;SDS011;51094;53.864;27.676;2022-08-19T05:09:26;3.20;;;3.10;;
64678;SDS011;51094;53.864;27.676;2022-08-19T05:12:14;3.00;;;2.90;;
64678;SDS011;51094;53.864;27.676;2022-08-19T05:14:42;2.90;;;2.90;;
64678;SDS011;51094;53.864;27.676;2022-08-19T05:17:09;3.10;;;3.00;;
64678;SDS011;51094;53.864;27.676;2022-08-19T05:19:52;3.08;;;3.00;;
64678;SDS011;51094;53.864;27.676;2022-08-19T05:22:38;3.10;;;3.00;;
64678;SDS011;51094;53.864;27.676;2022-08-19T05:25:06;3.20;;;3.10;;
64678;SDS011;51094;53.864;27.676;2022-08-19T05:27:38;3.03;;;3.00;;
64678;SDS011;51094;53.864;27.676;2022-08-19T05:30:06;3.30;;;3.22;;
64678;SDS011;51094;53.864;27.676;2022-08-19T05:32:33;2.90;;;2.90;;
64678;SDS011;51094;53.864;27.676;2022-08-19T05:35:00;3.20;;;3.20;;
64678;SDS011;51094;53.864;27.676;2022-08-19T05:37:26;3.15;;;3.05;;
64678;SDS011;51094;53.864;27.676;2022-08-19T05:39:54;3.63;;;3.53;;
64678;SDS011;51094;53.864;27.676;2022-08-19T05:42:21;3.13;;;3.03;;
64678;SDS011;51094;53.864;27.676;2022-08-19T05:44:49;3.22;;;3.17;;
64678;SDS011;51094;53.864;27.676;2022-08-19T05:47:16;3.53;;;3.53;;
64678;SDS011;51094;53.864;27.676;2022-08-19T05:52:14;3.40;;;3.28;;
64678;SDS011;51094;53.864;27.676;2022-08-19T05:54:50;3.30;;;3.20;;
64678;SDS011;51094;53.864;27.676;2022-08-19T05:57:17;3.40;;;3.30;;
64678;SDS011;51094;53.864;27.676;2022-08-19T05:59:45;3.50;;;3.40;;
64678;SDS011;51094;53.864;27.676;2022-08-19T06:02:27;3.40;;;3.30;;
64678;SDS011;51094;53.864;27.676;2022-08-19T06:04:54;3.42;;;3.33;;
64678;SDS011;51094;53.864;27.676;2022-08-19T06:07:21;3.50;;;3.40;;
64678;SDS011;51094;53.864;27.676;2022-08-19T06:09:48;3.00;;;3.00;;
64678;SDS011;51094;53.864;27.676;2022-08-19T06:12:29;3.33;;;3.30;;
64678;SDS011;51094;53.864;27.676;2022-08-19T06:15:01;3.30;;;3.20;;
64678;SDS011;51094;53.864;27.676;2022-08-19T06:17:34;3.42;;;3.33;;
64678;SDS011;51094;53.864;27.676;2022-08-19T06:20:04;3.40;;;3.30;;
64678;SDS011;51094;53.864;27.676;2022-08-19T06:22:39;3.50;;;3.40;;
64678;SDS011;51094;53.864;27.676;2022-08-19T06:25:07;3.47;;;3.40;;
64678;SDS011;51094;53.864;27.676;2022-08-19T06:27:35;3.20;;;3.13;;
64678;SDS011;51094;53.864;27.676;2022-08-19T06:30:13;3.30;;;3.20;;
64678;SDS011;51094;53.864;27.676;2022-08-19T06:32:41;3.58;;;3.47;;
64678;SDS011;51094;53.864;27.676;2022-08-19T06:35:08;3.20;;;3.15;;
64678;SDS011;51094;53.864;27.676;2022-08-19T06:37:36;3.30;;;3.30;;
64678;SDS011;51094;53.864;27.676;2022-08-19T06:40:11;3.22;;;3.13;;
64678;SDS011;51094;53.864;27.676;2022-08-19T06:42:38;3.60;;;3.60;;
64678;SDS011;51094;53.864;27.676;2022-08-19T06:45:15;3.30;;;3.20;;
64678;SDS011;51094;53.864;27.676;2022-08-19T06:47:42;3.70;;;3.53;;
64678;SDS011;51094;53.864;27.676;2022-08-19T06:50:13;3.08;;;3.05;;
64678;SDS011;51094;53.864;27.676;2022-08-19T06:52:40;3.42;;;3.42;;
64678;SDS011;51094;53.864;27.676;2022-08-19T06:55:07;2.83;;;2.83;;
64678;SDS011;51094;53.864;27.676;2022-08-19T06:57:34;3.08;;;2.97;;
64678;SDS011;51094;53.864;27.676;2022-08-19T07:00:02;3.10;;;3.00;;
64678;SDS011;51094;53.864;27.676;2022-08-19T07:02:32;3.00;;;2.90;;
64678;SDS011;51094;53.864;27.676;2022-08-19T07:04:59;2.67;;;2.60;;
64678;SDS011;51094;53.864;27.676;2022-08-19T07:07:31;2.85;;;2.85;;
64678;SDS011;51094;53.864;27.676;2022-08-19T07:09:58;2.75;;;2.75;;
64678;SDS011;51094;53.864;27.676;2022-08-19T07:12:29;2.80;;;2.70;;
64678;SDS011;51094;53.864;27.676;2022-08-19T07:15:04;2.50;;;2.40;;
64678;SDS011;51094;53.864;27.676;2022-08-19T07:17:31;2.67;;;2.58;;
64678;SDS011;51094;53.864;27.676;2022-08-19T07:20:00;2.63;;;2.53;;
64678;SDS011;51094;53.864;27.676;2022-08-19T07:22:34;2.40;;;2.30;;
64678;SDS011;51094;53.864;27.676;2022-08-19T07:25:01;2.15;;;2.15;;
64678;SDS011;51094;53.864;27.676;2022-08-19T07:27:29;2.03;;;2.00;;
64678;SDS011;51094;53.864;27.676;2022-08-19T07:30:03;1.88;;;1.88;;
64678;SDS011;51094;53.864;27.676;2022-08-19T07:32:38;1.70;;;1.70;;
64678;SDS011;51094;53.864;27.676;2022-08-19T07:35:05;1.58;;;1.58;;
64678;SDS011;51094;53.864;27.676;2022-08-19T07:37:33;1.63;;;1.63;;
64678;SDS011;51094;53.864;27.676;2022-08-19T07:40:02;1.53;;;1.53;;
64678;SDS011;51094;53.864;27.676;2022-08-19T07:42:30;1.90;;;1.90;;
64678;SDS011;51094;53.864;27.676;2022-08-19T07:44:57;1.60;;;1.60;;
64678;SDS011;51094;53.864;27.676;2022-08-19T07:47:25;1.70;;;1.70;;
64678;SDS011;51094;53.864;27.676;2022-08-19T07:50:13;1.73;;;1.63;;
64678;SDS011;51094;53.864;27.676;2022-08-19T07:52:40;1.50;;;1.50;;
64678;SDS011;51094;53.864;27.676;2022-08-19T07:55:13;1.52;;;1.52;;
64678;SDS011;51094;53.864;27.676;2022-08-19T07:58:01;1.88;;;1.63;;
64678;SDS011;51094;53.864;27.676;2022-08-19T08:00:30;1.65;;;1.60;;
64678;SDS011;51094;53.864;27.676;2022-08-19T08:02:57;1.60;;;1.50;;
64678;SDS011;51094;53.864;27.676;2022-08-19T08:05:23;1.60;;;1.60;;
64678;SDS011;51094;53.864;27.676;2022-08-19T08:08:10;1.80;;;1.80;;
64678;SDS011;51094;53.864;27.676;2022-08-19T08:10:53;1.50;;;1.50;;
64678;SDS011;51094;53.864;27.676;2022-08-19T08:13:23;2.40;;;2.20;;
64678;SDS011;51094;53.864;27.676;2022-08-19T08:15:50;1.48;;;1.45;;
64678;SDS011;51094;53.864;27.676;2022-08-19T08:18:18;1.30;;;1.30;;
64678;SDS011;51094;53.864;27.676;2022-08-19T08:20:47;1.40;;;1.40;;
64678;SDS011;51094;53.864;27.676;2022-08-19T08:23:13;1.80;;;1.70;;
64678;SDS011;51094;53.864;27.676;2022-08-19T08:25:53;1.30;;;1.30;;
64678;SDS011;51094;53.864;27.676;2022-08-19T08:28:21;1.48;;;1.48;;
64678;SDS011;51094;53.864;27.676;2022-08-19T08:30:49;1.40;;;1.40;;
64678;SDS011;51094;53.864;27.676;2022-08-19T08:33:24;1.40;;;1.40;;
64678;SDS011;51094;53.864;27.676;2022-08-19T08:36:09;1.30;;;1.30;;
64678;SDS011;51094;53.864;27.676;2022-08-19T08:38:37;1.70;;;1.60;;
64678;SDS011;51094;53.864;27.676;2022-08-19T08:41:13;2.67;;;1.95;;
64678;SDS011;51094;53.864;27.676;2022-08-19T08:43:49;1.55;;;1.55;;
64678;SDS011;51094;53.864;27.676;2022-08-19T08:51:51;1.60;;;1.60;;
64678;SDS011;51094;53.864;27.676;2022-08-19T08:54:32;1.20;;;1.20;;
64678;SDS011;51094;53.864;27.676;2022-08-19T08:57:03;1.30;;;1.30;;
64678;SDS011;51094;53.864;27.676;2022-08-19T08:59:34;1.42;;;1.35;;
64678;SDS011;51094;53.864;27.676;2022-08-19T09:02:04;2.00;;;1.90;;
64678;SDS011;51094;53.864;27.676;2022-08-19T09:04:31;1.45;;;1.42;;
64678;SDS011;51094;53.864;27.676;2022-08-19T09:13:10;1.25;;;1.25;;
64678;SDS011;51094;53.864;27.676;2022-08-19T09:15:40;1.20;;;1.20;;
64678;SDS011;51094;53.864;27.676;2022-08-19T09:18:13;1.30;;;1.30;;
64678;SDS011;51094;53.864;27.676;2022-08-19T09:20:44;1.33;;;1.33;;
64678;SDS011;51094;53.864;27.676;2022-08-19T09:25:40;1.27;;;1.27;;
64678;SDS011;51094;53.864;27.676;2022-08-19T09:28:07;1.20;;;1.20;;
64678;SDS011;51094;53.864;27.676;2022-08-19T09:30:47;1.42;;;1.42;;
64678;SDS011;51094;53.864;27.676;2022-08-19T09:33:14;1.50;;;1.40;;
64678;SDS011;51094;53.864;27.676;2022-08-19T09:35:41;1.42;;;1.42;;
64678;SDS011;51094;53.864;27.676;2022-08-19T09:38:18;1.30;;;1.30;;
64678;SDS011;51094;53.864;27.676;2022-08-19T09:40:44;1.30;;;1.30;;
64678;SDS011;51094;53.864;27.676;2022-08-19T09:43:11;1.58;;;1.50;;
64678;SDS011;51094;53.864;27.676;2022-08-19T09:45:39;1.30;;;1.30;;
64678;SDS011;51094;53.864;27.676;2022-08-19T09:48:06;1.30;;;1.30;;
64678;SDS011;51094;53.864;27.676;2022-08-19T09:50:35;1.58;;;1.55;;
64678;SDS011;51094;53.864;27.676;2022-08-19T09:53:17;1.40;;;1.40;;
64678;SDS011;51094;53.864;27.676;2022-08-19T09:55:44;1.50;;;1.40;;
64678;SDS011;51094;53.864;27.676;2022-08-19T09:58:11;1.30;;;1.30;;
64678;SDS011;51094;53.864;27.676;2022-08-19T10:00:38;1.52;;;1.42;;
64678;SDS011;51094;53.864;27.676;2022-08-19T10:03:05;1.40;;;1.40;;
64678;SDS011;51094;53.864;27.676;2022-08-19T10:05:33;1.40;;;1.40;;
64678;SDS011;51094;53.864;27.676;2022-08-19T10:08:22;1.30;;;1.30;;
64678;SDS011;51094;53.864;27.676;2022-08-19T10:10:54;1.35;;;1.35;;
64678;SDS011;51094;53.864;27.676;2022-08-19T10:13:26;1.27;;;1.27;;
64678;SDS011;51094;53.864;27.676;2022-08-19T10:15:56;1.30;;;1.30;;
64678;SDS011;51094;53.864;27.676;2022-08-19T10:18:28;1.40;;;1.40;;
64678;SDS011;51094;53.864;27.676;2022-08-19T10:21:02;1.52;;;1.50;;
64678;SDS011;51094;53.864;27.676;2022-08-19T10:23:37;1.50;;;1.50;;
64678;SDS011;51094;53.864;27.676;2022-08-19T10:26:06;1.30;;;1.30;;
64678;SDS011;51094;53.864;27.676;2022-08-19T10:28:34;1.38;;;1.38;;
64678;SDS011;51094;53.864;27.676;2022-08-19T10:31:08;1.70;;;1.60;;
64678;SDS011;51094;53.864;27.676;2022-08-19T10:33:39;1.30;;;1.30;;
64678;SDS011;51094;53.864;27.676;2022-08-19T10:36:20;1.38;;;1.38;;
64678;SDS011;51094;53.864;27.676;2022-08-19T10:38:49;1.30;;;1.30;;
64678;SDS011;51094;53.864;27.676;2022-08-19T10:41:23;1.40;;;1.30;;
64678;SDS011;51094;53.864;27.676;2022-08-19T10:43:53;1.20;;;1.20;;
64678;SDS011;51094;53.864;27.676;2022-08-19T10:46:22;1.42;;;1.40;;
64678;SDS011;51094;53.864;27.676;2022-08-19T10:48:50;1.30;;;1.30;;
64678;SDS011;51094;53.864;27.676;2022-08-19T10:51:17;1.48;;;1.48;;
64678;SDS011;51094;53.864;27.676;2022-08-19T10:54:11;1.38;;;1.38;;
64678;SDS011;51094;53.864;27.676;2022-08-19T10:56:38;1.50;;;1.40;;
64678;SDS011;51094;53.864;27.676;2022-08-19T10:59:28;1.50;;;1.50;;
64678;SDS011;51094;53.864;27.676;2022-08-19T11:02:01;1.30;;;1.30;;
64678;SDS011;51094;53.864;27.676;2022-08-19T11:04:30;1.60;;;1.50;;
64678;SDS011;51094;53.864;27.676;2022-08-19T11:06:58;1.27;;;1.27;;
64678;SDS011;51094;53.864;27.676;2022-08-19T11:09:25;1.40;;;1.40;;
64678;SDS011;51094;53.864;27.676;2022-08-19T11:11:59;1.13;;;1.13;;
64678;SDS011;51094;53.864;27.676;2022-08-19T11:14:30;1.40;;;1.40;;
64678;SDS011;51094;53.864;27.676;2022-08-19T11:16:59;1.50;;;1.50;;
64678;SDS011;51094;53.864;27.676;2022-08-19T11:19:27;1.42;;;1.42;;
64678;SDS011;51094;53.864;27.676;2022-08-19T11:21:53;1.23;;;1.23;;
64678;SDS011;51094;53.864;27.676;2022-08-19T11:24:23;1.40;;;1.33;;
64678;SDS011;51094;53.864;27.676;2022-08-19T11:26:52;1.60;;;1.60;;
64678;SDS011;51094;53.864;27.676;2022-08-19T11:29:24;1.70;;;1.60;;
64678;SDS011;51094;53.864;27.676;2022-08-19T11:31:52;1.40;;;1.40;;
64678;SDS011;51094;53.864;27.676;2022-08-19T11:34:20;1.58;;;1.48;;
64678;SDS011;51094;53.864;27.676;2022-08-19T11:36:49;1.55;;;1.50;;
64678;SDS011;51094;53.864;27.676;2022-08-19T11:39:18;1.45;;;1.45;;
64678;SDS011;51094;53.864;27.676;2022-08-19T11:41:46;1.40;;;1.40;;
64678;SDS011;51094;53.864;27.676;2022-08-19T11:46:41;1.63;;;1.60;;
64678;SDS011;51094;53.864;27.676;2022-08-19T11:49:13;1.50;;;1.50;;
64678;SDS011;51094;53.864;27.676;2022-08-19T11:51:41;1.60;;;1.50;;
64678;SDS011;51094;53.864;27.676;2022-08-19T11:54:09;1.52;;;1.52;;
64678;SDS011;51094;53.864;27.676;2022-08-19T11:56:37;1.67;;;1.67;;
64678;SDS011;51094;53.864;27.676;2022-08-19T11:59:04;1.67;;;1.67;;
64678;SDS011;51094;53.864;27.676;2022-08-19T12:01:31;1.70;;;1.70;;
64678;SDS011;51094;53.864;27.676;2022-08-19T12:06:26;1.95;;;1.90;;
64678;SDS011;51094;53.864;27.676;2022-08-19T12:08:58;1.65;;;1.65;;
64678;SDS011;51094;53.864;27.676;2022-08-19T12:11:26;1.70;;;1.60;;
64678;SDS011;51094;53.864;27.676;2022-08-19T12:13:56;2.00;;;1.98;;
64678;SDS011;51094;53.864;27.676;2022-08-19T12:16:24;1.60;;;1.60;;
64678;SDS011;51094;53.864;27.676;2022-08-19T12:18:54;1.90;;;1.80;;
64678;SDS011;51094;53.864;27.676;2022-08-19T12:21:23;1.90;;;1.80;;
64678;SDS011;51094;53.864;27.676;2022-08-19T12:23:54;1.80;;;1.80;;
64678;SDS011;51094;53.864;27.676;2022-08-19T12:26:22;1.90;;;1.90;;
64678;SDS011;51094;53.864;27.676;2022-08-19T12:28:51;1.70;;;1.70;;
64678;SDS011;51094;53.864;27.676;2022-08-19T12:31:18;1.80;;;1.80;;
64678;SDS011;51094;53.864;27.676;2022-08-19T12:33:46;1.92;;;1.83;;
64678;SDS011;51094;53.864;27.676;2022-08-19T12:36:14;1.90;;;1.80;;
64678;SDS011;51094;53.864;27.676;2022-08-19T12:38:42;2.03;;;1.92;;
64678;SDS011;51094;53.864;27.676;2022-08-19T12:41:11;2.00;;;1.90;;
64678;SDS011;51094;53.864;27.676;2022-08-19T12:43:39;1.80;;;1.80;;
64678;SDS011;51094;53.864;27.676;2022-08-19T12:46:07;2.00;;;1.90;;
64678;SDS011;51094;53.864;27.676;2022-08-19T12:48:36;1.90;;;1.80;;
64678;SDS011;51094;53.864;27.676;2022-08-19T12:51:07;3.75;;;3.45;;
64678;SDS011;51094;53.864;27.676;2022-08-19T12:53:35;1.70;;;1.60;;
64678;SDS011;51094;53.864;27.676;2022-08-19T12:56:05;1.45;;;1.45;;
64678;SDS011;51094;53.864;27.676;2022-08-19T12:58:37;1.83;;;1.73;;
64678;SDS011;51094;53.864;27.676;2022-08-19T13:01:11;1.90;;;1.80;;
64678;SDS011;51094;53.864;27.676;2022-08-19T13:03:41;2.00;;;1.90;;
64678;SDS011;51094;53.864;27.676;2022-08-19T13:06:09;1.90;;;1.90;;
64678;SDS011;51094;53.864;27.676;2022-08-19T13:08:36;1.80;;;1.80;;
64678;SDS011;51094;53.864;27.676;2022-08-19T13:11:08;2.30;;;2.20;;
64678;SDS011;51094;53.864;27.676;2022-08-19T13:13:41;1.73;;;1.70;;
64678;SDS011;51094;53.864;27.676;2022-08-19T13:16:09;2.03;;;1.92;;
64678;SDS011;51094;53.864;27.676;2022-08-19T13:18:37;2.00;;;1.90;;
64678;SDS011;51094;53.864;27.676;2022-08-19T13:21:05;2.03;;;1.92;;
64678;SDS011;51094;53.864;27.676;2022-08-19T13:23:34;1.90;;;1.90;;
64678;SDS011;51094;53.864;27.676;2022-08-19T13:26:02;1.90;;;1.80;;
64678;SDS011;51094;53.864;27.676;2022-08-19T13:28:31;1.70;;;1.70;;
64678;SDS011;51094;53.864;27.676;2022-08-19T13:31:29;1.80;;;1.80;;
64678;SDS011;51094;53.864;27.676;2022-08-19T13:36:44;1.90;;;1.90;;
64678;SDS011;51094;53.864;27.676;2022-08-19T13:39:11;2.00;;;1.98;;
64678;SDS011;51094;53.864;27.676;2022-08-19T13:41:42;1.77;;;1.70;;
64678;SDS011;51094;53.864;27.676;2022-08-19T13:44:14;1.75;;;1.67;;
64678;SDS011;51094;53.864;27.676;2022-08-19T13:46:45;1.58;;;1.58;;
64678;SDS011;51094;53.864;27.676;2022-08-19T13:49:19;1.75;;;1.75;;
64678;SDS011;51094;53.864;27.676;2022-08-19T13:51:46;1.50;;;1.50;;
64678;SDS011;51094;53.864;27.676;2022-08-19T13:54:13;1.80;;;1.80;;
64678;SDS011;51094;53.864;27.676;2022-08-19T13:56:43;1.70;;;1.70;;
64678;SDS011;51094;53.864;27.676;2022-08-19T13:59:11;1.88;;;1.88;;
64678;SDS011;51094;53.864;27.676;2022-08-19T14:01:38;1.90;;;1.90;;
64678;SDS011;51094;53.864;27.676;2022-08-19T14:04:06;1.80;;;1.80;;
64678;SDS011;51094;53.864;27.676;2022-08-19T14:06:34;1.60;;;1.55;;
64678;SDS011;51094;53.864;27.676;2022-08-19T14:09:00;1.60;;;1.60;;
64678;SDS011;51094;53.864;27.676;2022-08-19T14:11:28;1.65;;;1.65;;
64678;SDS011;51094;53.864;27.676;2022-08-19T14:13:56;1.67;;;1.67;;
64678;SDS011;51094;53.864;27.676;2022-08-19T14:16:22;1.58;;;1.58;;
64678;SDS011;51094;53.864;27.676;2022-08-19T14:18:49;1.60;;;1.60;;
64678;SDS011;51094;53.864;27.676;2022-08-19T14:21:17;1.60;;;1.60;;
64678;SDS011;51094;53.864;27.676;2022-08-19T14:23:46;1.60;;;1.60;;
64678;SDS011;51094;53.864;27.676;2022-08-19T14:26:14;1.70;;;1.60;;
64678;SDS011;51094;53.864;27.676;2022-08-19T14:28:43;1.67;;;1.67;;
64678;SDS011;51094;53.864;27.676;2022-08-19T14:31:11;1.52;;;1.50;;
64678;SDS011;51094;53.864;27.676;2022-08-19T14:33:39;1.60;;;1.60;;
64678;SDS011;51094;53.864;27.676;2022-08-19T14:36:06;1.80;;;1.70;;
64678;SDS011;51094;53.864;27.676;2022-08-19T14:38:33;2.00;;;2.00;;
64678;SDS011;51094;53.864;27.676;2022-08-19T14:41:07;1.50;;;1.50;;
64678;SDS011;51094;53.864;27.676;2022-08-19T14:43:39;1.30;;;1.30;;
64678;SDS011;51094;53.864;27.676;2022-08-19T14:46:05;1.50;;;1.50;;
64678;SDS011;51094;53.864;27.676;2022-08-19T14:48:35;1.50;;;1.50;;
64678;SDS011;51094;53.864;27.676;2022-08-19T14:51:07;2.00;;;2.00;;
64678;SDS011;51094;53.864;27.676;2022-08-19T14:53:34;2.00;;;2.00;;
64678;SDS011;51094;53.864;27.676;2022-08-19T14:56:01;1.70;;;1.70;;
64678;SDS011;51094;53.864;27.676;2022-08-19T14:58:32;1.30;;;1.30;;
64678;SDS011;51094;53.864;27.676;2022-08-19T15:01:04;1.30;;;1.30;;
64678;SDS011;51094;53.864;27.676;2022-08-19T15:03:31;1.77;;;1.75;;
64678;SDS011;51094;53.864;27.676;2022-08-19T15:05:59;1.30;;;1.25;;
64678;SDS011;51094;53.864;27.676;2022-08-19T15:08:28;1.30;;;1.30;;
64678;SDS011;51094;53.864;27.676;2022-08-19T15:10:56;1.30;;;1.30;;
64678;SDS011;51094;53.864;27.676;2022-08-19T15:13:24;1.38;;;1.38;;
64678;SDS011;51094;53.864;27.676;2022-08-19T15:15:53;1.20;;;1.20;;
64678;SDS011;51094;53.864;27.676;2022-08-19T15:18:20;1.30;;;1.30;;